EGHILFRK

Guest
Details From EGHI - Southampton
To LFRK - Caen Carpiquet
Flight Number -
Tags generated
Created
Modified
Stats Distance 112 nm / 208 km
Max Altitude 4,400 ft / 1,341 m
Waypoints 3
Social Downloads 2
Likes 0
Share VATSIM

Download

Looking for another format? Having issues loading an existing format? Contact us
Advertisement - Login to hide

Notes

Basic altitude profile: - Ascent Rate: 500ft/min - Ascent Speed: 140kts - Cruise Altitude: 90ft - Cruise Speed: 140kts - Descent Rate: 500ft/min - Descent Speed: 140kts Options: - Use NATs: yes - Use PACOTS: no - Use low airways: yes - Use high airways: no

Route

EGHI BEGTO LFRK

ID Type Via Altitude (ft/m) Position (lat/lon) Dist (leg/tot) Name
O EGHI APT - 0 / 0 50.95026 / -1.35681 - / 0 nm Southampton
BEGTO FIX - 4,400 / 1,341 50.75752 / -1.23143 12 / 12 nm
O LFRK APT - 0 / 0 49.17512 / -0.45194 99 / 112 nm Caen Carpiquet

Altitude Profile

Advertisement - Login to hide

EGHI

Details ICAO EGHI (SOU)
Name Southampton
Region United Kingdom
Timezone Europe/London (UTC+1.0)
Stats Elevation 41 ft / 12 m (AMSL)
Location 50.950300° -1.356790°
Runways 1
Magnetic Variation 0.688° W

METAR

EGHI 211850Z VRB03KT CAVOK 13/10 Q1028

Decode

TAF

Not found

Departure Runways

ID Width Length Bearing (true/mag) Surface Threshold Overrun Markings Lighting
02 121 ft / 37 m 5,651 ft / 1,722 m 19.36° / 20.04° ASPHALT 239 ft / 73 m 66 ft / 20 m UK-PREC-APP CENTERLINE EDGE THRESHOLD MALS
20 121 ft / 37 m 5,651 ft / 1,722 m 199.36° / 200.05° ASPHALT 151 ft / 46 m 0 ft / 0 m UK-PREC-APP CENTERLINE EDGE THRESHOLD MALS

LFRK

Details ICAO LFRK (CFR)
Name Caen Carpiquet
Region France
Timezone Europe/Paris (UTC+2.0)
Stats Elevation 256 ft / 78 m (AMSL)
Location 49.175100° -0.451940°
Runways 2
Magnetic Variation 0.203° W

METAR

LFRK 211930Z AUTO 31004KT 6000 NSC 11/10 Q1027 TEMPO 0500 FG VV///

Decode

TAF

Not found

Destination Runways

ID Width Length Bearing (true/mag) Surface Threshold Overrun Markings Lighting
06 98 ft / 30 m 3,880 ft / 1,183 m 51.68° / 51.88° ASPHALT 0 ft / 0 m 0 ft / 0 m APP
13 148 ft / 45 m 6,215 ft / 1,894 m 125.34° / 125.54° ASPHALT 984 ft / 300 m 0 ft / 0 m PREC-APP EDGE THRESHOLD REIL-OMNI
24 98 ft / 30 m 3,880 ft / 1,183 m 231.69° / 231.89° ASPHALT 0 ft / 0 m 0 ft / 0 m APP
31 148 ft / 45 m 6,215 ft / 1,894 m 305.36° / 305.56° ASPHALT 0 ft / 0 m 0 ft / 0 m PREC-APP EDGE THRESHOLD REIL-OMNI

Approach Navaids

Runway Type Ident Frequency Range Bearing (true/mag) Slope Elevation
31 LOC-ILS CN 110.95 MHz 18 nm / 33 km 305.34° / 305.54 ° - 231 ft / 70 m (AMSL)
31 GS CN 110.95 MHz 10 nm / 19 km 305.70° / 305.90 ° 3.00° 233 ft / 71 m (AMSL)
31 DME CN 110.95 MHz 18 nm / 33 km - - 233 ft / 71 m (AMSL)

Popular Alternatives